createdAt,value
2023-02-24T00:03:33.077Z,90.60
2023-02-24T00:07:16.891Z,90.60
2023-02-24T00:10:58.661Z,90.70
2023-02-24T00:14:43.414Z,90.80
2023-02-24T00:18:25.221Z,90.80
2023-02-24T00:22:08.182Z,90.80
2023-02-24T00:25:57.982Z,90.80
2023-02-24T00:29:41.927Z,90.90
2023-02-24T00:33:24.307Z,90.90
2023-02-24T00:37:09.541Z,91.00
2023-02-24T00:40:51.306Z,91.00
2023-02-24T00:44:43.864Z,91.10
2023-02-24T00:48:28.779Z,91.10
2023-02-24T00:52:16.356Z,91.10
2023-02-24T00:56:02.143Z,91.20
2023-02-24T00:59:47.519Z,91.20
2023-02-24T01:03:29.552Z,91.20
2023-02-24T01:07:12.866Z,91.20
2023-02-24T01:11:17.767Z,91.30
2023-02-24T01:14:59.905Z,91.30
2023-02-24T01:18:42.143Z,91.30
2023-02-24T01:22:23.950Z,91.30
2023-02-24T01:26:05.822Z,91.40
2023-02-24T01:29:48.379Z,91.40
2023-02-24T01:33:30.121Z,91.40
2023-02-24T01:37:16.340Z,91.40
2023-02-24T01:40:59.339Z,91.50
2023-02-24T01:44:44.196Z,91.50
2023-02-24T01:48:27.542Z,91.80
2023-02-24T01:52:20.608Z,91.60
2023-02-24T01:56:04.294Z,91.60
2023-02-24T01:59:49.160Z,91.60
2023-02-24T02:03:35.169Z,91.70
2023-02-24T02:07:19.743Z,91.70
2023-02-24T02:11:06.561Z,91.70
2023-02-24T02:14:54.581Z,91.80
2023-02-24T02:18:48.705Z,91.80
2023-02-24T02:23:01.567Z,91.80
2023-02-24T02:26:43.241Z,91.80
2023-02-24T02:30:50.891Z,91.90
2023-02-24T02:34:40.105Z,91.90
2023-02-24T02:38:35.619Z,91.90
2023-02-24T02:42:59.126Z,91.90
2023-02-24T02:46:58.219Z,92.00
2023-02-24T02:50:54.984Z,92.00
2023-02-24T02:54:50.508Z,92.10
2023-02-24T02:58:37.569Z,92.10
2023-02-24T03:02:29.535Z,92.30
2023-02-24T03:06:17.316Z,92.30
2023-02-24T03:10:10.782Z,92.40
2023-02-24T03:13:56.420Z,92.40
2023-02-24T03:17:42.725Z,92.50
2023-02-24T03:21:36.635Z,92.60
2023-02-24T03:25:25.746Z,92.60
2023-02-24T03:29:19.278Z,92.70
2023-02-24T03:33:09.379Z,92.70
2023-02-24T03:36:51.285Z,92.80
2023-02-24T03:40:36.016Z,92.80
2023-02-24T03:44:17.810Z,92.90
2023-02-24T03:47:59.871Z,92.90
2023-02-24T03:51:44.832Z,93.00
2023-02-24T03:56:04.682Z,93.00
2023-02-24T04:00:26.020Z,93.00
2023-02-24T04:04:27.482Z,93.00
2023-02-24T04:08:10.304Z,93.00
2023-02-24T04:12:21.112Z,93.00
2023-02-24T04:16:12.093Z,93.00
2023-02-24T04:20:00.093Z,93.30
2023-02-24T04:23:44.189Z,93.10
2023-02-24T04:27:28.238Z,93.10
2023-02-24T04:31:17.767Z,93.10
2023-02-24T04:35:09.513Z,93.10
2023-02-24T04:38:52.132Z,93.10
2023-02-24T04:42:33.860Z,93.10
2023-02-24T04:46:15.669Z,93.20
2023-02-24T04:49:57.421Z,93.20
2023-02-24T04:53:39.455Z,93.20
2023-02-24T04:57:21.225Z,93.30
2023-02-24T05:01:09.987Z,93.30
2023-02-24T05:04:51.932Z,93.20
2023-02-24T05:08:34.018Z,93.30
2023-02-24T05:12:15.745Z,93.30
2023-02-24T05:16:08.506Z,93.30
2023-02-24T05:20:08.928Z,93.30
2023-02-24T05:23:53.468Z,93.30
2023-02-24T05:27:38.953Z,93.30
2023-02-24T05:31:27.037Z,93.30
2023-02-24T05:35:10.786Z,93.30
2023-02-24T05:39:21.158Z,93.30
2023-02-24T05:43:04.860Z,93.30
2023-02-24T05:46:47.357Z,93.30
2023-02-24T05:50:29.236Z,93.30
2023-02-24T05:54:13.364Z,93.30
2023-02-24T05:57:56.630Z,93.30
2023-02-24T06:01:41.988Z,93.30
2023-02-24T06:05:25.857Z,93.30
2023-02-24T06:09:14.293Z,93.30
2023-02-24T06:12:56.079Z,93.30
2023-02-24T06:16:40.503Z,93.30
2023-02-24T06:20:26.782Z,93.30
2023-02-24T06:24:18.537Z,93.30
2023-02-24T06:28:01.832Z,93.30
2023-02-24T06:31:45.063Z,93.30
2023-02-24T06:35:27.561Z,93.30
2023-02-24T06:39:09.439Z,93.30
2023-02-24T06:42:54.038Z,93.20
2023-02-24T06:46:36.358Z,93.30
2023-02-24T06:50:20.239Z,93.20
2023-02-24T06:54:02.813Z,93.20
2023-02-24T06:57:44.597Z,93.10
2023-02-24T07:01:28.792Z,93.10
2023-02-24T07:05:14.586Z,93.10
2023-02-24T07:08:58.525Z,93.10
2023-02-24T07:12:41.291Z,93.20
2023-02-24T07:16:28.724Z,93.20
2023-02-24T07:20:25.127Z,93.20
2023-02-24T07:24:08.813Z,93.20
2023-02-24T07:27:50.692Z,93.20
2023-02-24T07:31:34.437Z,93.30
2023-02-24T07:35:16.274Z,93.30
2023-02-24T07:38:59.227Z,93.30
2023-02-24T07:42:42.242Z,93.40
2023-02-24T07:46:27.942Z,93.50
2023-02-24T07:50:14.348Z,93.50
2023-02-24T07:53:58.913Z,93.60
2023-02-24T07:57:41.627Z,93.60
2023-02-24T08:01:23.768Z,93.70
2023-02-24T08:05:09.153Z,93.70
2023-02-24T08:08:59.886Z,93.70
2023-02-24T08:12:42.841Z,93.70
2023-02-24T08:16:24.761Z,93.80
2023-02-24T08:20:12.927Z,93.80
2023-02-24T08:23:54.695Z,93.90
2023-02-24T08:27:39.054Z,93.90
2023-02-24T08:31:23.749Z,94.00
2023-02-24T08:35:14.849Z,94.00
2023-02-24T08:38:59.829Z,94.00
2023-02-24T08:42:41.610Z,94.10
2023-02-24T08:46:33.322Z,94.10
2023-02-24T08:50:15.300Z,94.10
2023-02-24T08:54:00.682Z,94.20
2023-02-24T08:57:53.553Z,94.30
2023-02-24T09:01:38.447Z,94.20
2023-02-24T09:05:20.283Z,94.30
2023-02-24T09:09:20.680Z,94.30
2023-02-24T09:13:08.629Z,94.40
2023-02-24T09:17:03.630Z,94.40
2023-02-24T09:21:15.964Z,94.40
2023-02-24T09:25:21.175Z,94.50
2023-02-24T09:29:22.931Z,94.40
2023-02-24T09:33:07.736Z,94.50
2023-02-24T09:37:02.986Z,94.50
2023-02-24T09:40:50.811Z,94.60
2023-02-24T09:44:41.842Z,94.60
2023-02-24T09:48:44.714Z,94.70
2023-02-24T09:52:41.029Z,94.70
2023-02-24T09:56:42.524Z,94.80
2023-02-24T10:00:33.482Z,94.80
2023-02-24T10:04:21.239Z,94.90
2023-02-24T10:08:08.237Z,95.00
2023-02-24T10:12:03.926Z,95.20
2023-02-24T10:15:58.042Z,95.10
2023-02-24T10:19:41.291Z,95.10
2023-02-24T10:23:45.180Z,95.10
2023-02-24T10:28:11.354Z,95.10
2023-02-24T10:32:23.530Z,95.10
2023-02-24T10:36:11.797Z,95.10
2023-02-24T10:40:00.794Z,95.10
2023-02-24T10:43:56.004Z,95.10
2023-02-24T10:47:44.390Z,95.10
2023-02-24T10:51:38.420Z,95.00
2023-02-24T10:55:43.162Z,94.90
2023-02-24T10:59:25.154Z,94.80
2023-02-24T11:03:22.091Z,94.70
2023-02-24T11:07:24.802Z,94.50
2023-02-24T11:11:25.559Z,94.40
2023-02-24T11:15:38.393Z,94.30
2023-02-24T11:19:21.310Z,94.20
2023-02-24T11:23:09.930Z,93.80
2023-02-24T11:26:51.813Z,93.60
2023-02-24T11:30:42.637Z,93.30
2023-02-24T11:34:35.215Z,93.20
2023-02-24T11:38:31.963Z,93.00
2023-02-24T11:42:19.653Z,92.90
2023-02-24T11:46:17.694Z,92.80
2023-02-24T11:50:17.712Z,92.60
2023-02-24T11:54:16.095Z,92.50
2023-02-24T11:57:59.306Z,92.50
2023-02-24T12:01:56.700Z,92.30
2023-02-24T12:05:47.493Z,92.20
2023-02-24T12:09:38.689Z,92.30
2023-02-24T12:13:47.201Z,92.30
2023-02-24T12:17:59.066Z,92.30
2023-02-24T12:21:44.958Z,92.40
2023-02-24T12:25:50.068Z,92.20
2023-02-24T12:30:06.342Z,92.20
2023-02-24T12:34:02.831Z,92.40
2023-02-24T12:38:32.708Z,92.20
2023-02-24T12:42:34.757Z,92.40
2023-02-24T12:46:35.908Z,92.10
2023-02-24T12:50:43.615Z,92.30
2023-02-24T12:54:34.321Z,92.00
2023-02-24T12:58:37.436Z,91.80
2023-02-24T13:02:40.615Z,92.00
2023-02-24T13:06:35.373Z,91.80
2023-02-24T13:10:49.404Z,91.60
2023-02-24T13:14:37.322Z,92.00
2023-02-24T13:18:36.876Z,91.70
2023-02-24T13:22:32.744Z,91.80
2023-02-24T13:26:23.203Z,91.70
2023-02-24T13:30:28.628Z,91.60
2023-02-24T13:34:28.815Z,91.40
2023-02-24T13:38:25.322Z,91.40
2023-02-24T13:42:25.500Z,91.40
2023-02-24T13:46:18.191Z,91.40
2023-02-24T13:50:02.868Z,91.20
2023-02-24T13:53:53.441Z,90.90
2023-02-24T13:57:59.318Z,91.00
2023-02-24T14:01:59.431Z,90.90
2023-02-24T14:05:43.633Z,89.50
2023-02-24T14:09:30.495Z,86.20
2023-02-24T14:13:20.682Z,84.30
2023-02-24T14:17:02.593Z,84.00
2023-02-24T14:20:45.264Z,83.60
2023-02-24T14:24:28.444Z,83.90
2023-02-24T14:28:23.500Z,84.10
2023-02-24T14:32:05.533Z,84.90
2023-02-24T14:35:47.733Z,84.80
2023-02-24T14:39:31.879Z,85.10
2023-02-24T14:43:15.176Z,85.50
2023-02-24T14:46:59.100Z,85.90
2023-02-24T14:50:40.923Z,86.20
2023-02-24T14:54:49.173Z,86.30
2023-02-24T14:58:47.796Z,86.70
2023-02-24T15:02:33.386Z,86.60
2023-02-24T15:06:30.604Z,86.90
2023-02-24T15:10:26.077Z,87.20
2023-02-24T15:14:23.035Z,87.40
2023-02-24T15:18:10.674Z,87.30
2023-02-24T15:21:52.549Z,90.10
2023-02-24T15:25:46.341Z,87.90
2023-02-24T15:29:30.599Z,88.20
2023-02-24T15:33:23.848Z,88.00
2023-02-24T15:37:24.614Z,88.40
2023-02-24T15:41:09.401Z,89.20
2023-02-24T15:45:23.425Z,88.70
2023-02-24T15:49:05.851Z,89.50
2023-02-24T15:52:48.166Z,88.80
2023-02-24T15:56:33.661Z,88.20
2023-02-24T16:00:21.487Z,88.10
2023-02-24T16:04:05.101Z,87.60
2023-02-24T16:07:48.486Z,87.40
2023-02-24T16:11:41.650Z,87.10
2023-02-24T16:15:30.869Z,87.20
2023-02-24T16:19:14.793Z,86.60
2023-02-24T16:23:02.628Z,86.60
2023-02-24T16:26:44.574Z,86.60
2023-02-24T16:30:30.533Z,86.60
2023-02-24T16:34:15.788Z,86.00
2023-02-24T16:37:57.556Z,85.20
2023-02-24T16:41:39.352Z,85.60
2023-02-24T16:45:22.252Z,86.60
2023-02-24T16:49:08.235Z,87.50
2023-02-24T16:52:50.410Z,88.30
2023-02-24T16:56:32.213Z,88.90
2023-02-24T17:00:40.710Z,89.50
2023-02-24T17:04:24.863Z,90.10
2023-02-24T17:08:06.686Z,90.30
2023-02-24T17:11:48.476Z,90.60
2023-02-24T17:15:30.329Z,90.80
2023-02-24T17:19:12.372Z,91.00
2023-02-24T17:22:54.274Z,91.10
2023-02-24T17:26:36.277Z,91.20
2023-02-24T17:30:24.153Z,91.50
2023-02-24T17:34:06.416Z,91.30
2023-02-24T17:37:48.239Z,91.40
2023-02-24T17:41:30.084Z,91.50
2023-02-24T17:45:13.359Z,91.60
2023-02-24T17:48:55.114Z,91.70
2023-02-24T17:52:37.199Z,91.90
2023-02-24T17:56:19.198Z,91.90
2023-02-24T18:00:01.240Z,92.00
2023-02-24T18:03:43.056Z,92.10
2023-02-24T18:07:27.881Z,92.20
2023-02-24T18:11:14.824Z,92.30
2023-02-24T18:15:07.895Z,92.30
2023-02-24T18:18:53.101Z,92.40
2023-02-24T18:22:35.356Z,92.50
2023-02-24T18:26:17.314Z,92.60
2023-02-24T18:29:59.084Z,92.60
2023-02-24T18:33:41.007Z,92.70
2023-02-24T18:37:22.819Z,92.70
2023-02-24T18:41:07.805Z,92.80
2023-02-24T18:44:49.617Z,92.90
2023-02-24T18:48:33.346Z,92.90
2023-02-24T18:52:15.084Z,93.00
2023-02-24T18:56:04.296Z,93.30
2023-02-24T18:59:51.620Z,93.20
2023-02-24T19:03:33.553Z,93.20
2023-02-24T19:07:15.307Z,93.20
2023-02-24T19:10:57.084Z,93.20
2023-02-24T19:14:38.799Z,93.20
2023-02-24T19:18:20.590Z,93.20
2023-02-24T19:22:02.433Z,93.20
2023-02-24T19:25:44.546Z,93.30
2023-02-24T19:29:28.025Z,93.30
2023-02-24T19:33:10.067Z,93.40
2023-02-24T19:36:51.877Z,93.50
2023-02-24T19:44:36.949Z,93.70
2023-02-24T19:48:20.434Z,93.80
2023-02-24T19:52:02.211Z,93.70
2023-02-24T19:55:51.145Z,93.90
2023-02-24T19:59:33.123Z,93.50
2023-02-24T20:03:16.066Z,93.40
2023-02-24T20:06:57.887Z,93.40
2023-02-24T20:10:48.099Z,93.30
2023-02-24T20:14:30.265Z,93.30
2023-02-24T20:18:12.101Z,93.40
2023-02-24T20:21:53.988Z,93.40
2023-02-24T20:25:35.711Z,93.40
2023-02-24T20:29:19.492Z,93.50
2023-02-24T20:33:01.277Z,93.50
2023-02-24T20:36:43.846Z,93.60
2023-02-24T20:40:25.604Z,93.70
2023-02-24T20:44:08.052Z,93.70
2023-02-24T20:47:49.819Z,93.60
2023-02-24T20:51:33.478Z,93.50
2023-02-24T20:55:15.378Z,93.40
2023-02-24T20:59:09.448Z,93.40
2023-02-24T21:02:51.285Z,93.30
2023-02-24T21:06:33.440Z,93.20
2023-02-24T21:10:15.683Z,93.20
2023-02-24T21:13:58.315Z,93.10
2023-02-24T21:17:40.261Z,93.30
2023-02-24T21:21:22.117Z,93.00
2023-02-24T21:25:04.089Z,92.90
2023-02-24T21:28:46.856Z,92.80
2023-02-24T21:32:28.827Z,92.70
2023-02-24T21:36:15.757Z,92.70
2023-02-24T21:39:57.680Z,92.60
2023-02-24T21:43:39.504Z,92.90
2023-02-24T21:47:21.266Z,92.50
2023-02-24T21:51:06.017Z,92.50
2023-02-24T21:54:49.671Z,92.40
2023-02-24T21:58:32.837Z,92.30
2023-02-24T22:02:17.941Z,92.50
2023-02-24T22:05:59.663Z,92.20
2023-02-24T22:09:41.497Z,92.10
2023-02-24T22:13:23.249Z,92.00
2023-02-24T22:17:05.070Z,92.00
2023-02-24T22:20:46.821Z,91.90
2023-02-24T22:24:28.590Z,92.00
2023-02-24T22:28:10.349Z,91.90
2023-02-24T22:31:53.506Z,91.90
2023-02-24T22:35:35.489Z,91.90
2023-02-24T22:39:17.467Z,91.90
2023-02-24T22:42:59.214Z,91.80
2023-02-24T22:46:41.042Z,91.80
2023-02-24T22:50:22.843Z,91.80
2023-02-24T22:54:05.534Z,91.80
2023-02-24T22:57:47.408Z,91.80
2023-02-24T23:01:35.883Z,91.90
2023-02-24T23:05:17.763Z,91.80
2023-02-24T23:09:00.676Z,91.80
2023-02-24T23:12:42.517Z,91.80
2023-02-24T23:16:27.421Z,91.90
2023-02-24T23:20:13.089Z,91.90
2023-02-24T23:23:58.484Z,91.90
2023-02-24T23:27:41.128Z,92.00
2023-02-24T23:31:22.980Z,92.00
2023-02-24T23:35:05.310Z,92.10
2023-02-24T23:38:48.031Z,92.10
2023-02-24T23:42:29.783Z,92.10
2023-02-24T23:46:13.521Z,92.10
2023-02-24T23:49:55.442Z,92.10
2023-02-24T23:53:38.829Z,92.10
2023-02-24T23:57:21.980Z,92.00
